sensor_id;sensor_type;location;lat;lon;timestamp;P1;durP1;ratioP1;P2;durP2;ratioP2
5125;SDS011;63008;53.112;8.896;2023-04-09T00:00:07;96.83;;;42.20;;
5125;SDS011;63008;53.112;8.896;2023-04-09T00:02:10;96.13;;;42.43;;
5125;SDS011;63008;53.112;8.896;2023-04-09T00:04:11;94.03;;;41.73;;
5125;SDS011;63008;53.112;8.896;2023-04-09T00:06:12;95.27;;;44.93;;
5125;SDS011;63008;53.112;8.896;2023-04-09T00:08:13;97.23;;;43.03;;
5125;SDS011;63008;53.112;8.896;2023-04-09T00:10:14;78.20;;;39.20;;
5125;SDS011;63008;53.112;8.896;2023-04-09T00:12:15;80.77;;;40.87;;
5125;SDS011;63008;53.112;8.896;2023-04-09T00:14:16;90.13;;;40.13;;
5125;SDS011;63008;53.112;8.896;2023-04-09T00:16:17;79.13;;;40.77;;
5125;SDS011;63008;53.112;8.896;2023-04-09T00:18:18;88.90;;;40.83;;
5125;SDS011;63008;53.112;8.896;2023-04-09T00:20:19;87.23;;;41.70;;
5125;SDS011;63008;53.112;8.896;2023-04-09T00:22:20;80.37;;;39.47;;
5125;SDS011;63008;53.112;8.896;2023-04-09T00:24:21;88.23;;;42.17;;
5125;SDS011;63008;53.112;8.896;2023-04-09T00:26:22;84.27;;;39.20;;
5125;SDS011;63008;53.112;8.896;2023-04-09T00:28:22;69.73;;;37.00;;
5125;SDS011;63008;53.112;8.896;2023-04-09T00:30:23;77.30;;;39.27;;
5125;SDS011;63008;53.112;8.896;2023-04-09T00:32:25;82.37;;;38.67;;
5125;SDS011;63008;53.112;8.896;2023-04-09T00:34:26;81.00;;;38.33;;
5125;SDS011;63008;53.112;8.896;2023-04-09T00:36:27;70.80;;;35.17;;
5125;SDS011;63008;53.112;8.896;2023-04-09T00:38:28;82.57;;;38.87;;
5125;SDS011;63008;53.112;8.896;2023-04-09T00:40:29;84.67;;;38.50;;
5125;SDS011;63008;53.112;8.896;2023-04-09T00:42:30;86.23;;;38.70;;
5125;SDS011;63008;53.112;8.896;2023-04-09T00:44:35;77.07;;;37.90;;
5125;SDS011;63008;53.112;8.896;2023-04-09T00:46:36;91.50;;;37.33;;
5125;SDS011;63008;53.112;8.896;2023-04-09T00:48:37;74.80;;;37.27;;
5125;SDS011;63008;53.112;8.896;2023-04-09T00:50:38;81.17;;;37.47;;
5125;SDS011;63008;53.112;8.896;2023-04-09T00:52:40;81.03;;;40.07;;
5125;SDS011;63008;53.112;8.896;2023-04-09T00:54:41;74.10;;;36.37;;
5125;SDS011;63008;53.112;8.896;2023-04-09T00:56:42;75.13;;;38.60;;
5125;SDS011;63008;53.112;8.896;2023-04-09T00:58:43;74.13;;;39.50;;
5125;SDS011;63008;53.112;8.896;2023-04-09T01:00:44;78.03;;;36.80;;
5125;SDS011;63008;53.112;8.896;2023-04-09T01:02:45;83.33;;;37.10;;
5125;SDS011;63008;53.112;8.896;2023-04-09T01:04:47;77.70;;;35.70;;
5125;SDS011;63008;53.112;8.896;2023-04-09T01:06:51;73.80;;;38.73;;
5125;SDS011;63008;53.112;8.896;2023-04-09T01:09:17;73.70;;;37.43;;
5125;SDS011;63008;53.112;8.896;2023-04-09T01:11:32;74.77;;;36.97;;
5125;SDS011;63008;53.112;8.896;2023-04-09T01:13:39;70.17;;;35.93;;
5125;SDS011;63008;53.112;8.896;2023-04-09T01:15:47;88.17;;;40.30;;
5125;SDS011;63008;53.112;8.896;2023-04-09T01:20:59;81.77;;;36.63;;
5125;SDS011;63008;53.112;8.896;2023-04-09T01:28:07;57.37;;;33.17;;
5125;SDS011;63008;53.112;8.896;2023-04-09T01:30:16;76.87;;;37.07;;
5125;SDS011;63008;53.112;8.896;2023-04-09T01:32:18;81.53;;;37.87;;
5125;SDS011;63008;53.112;8.896;2023-04-09T01:34:21;82.60;;;38.57;;
5125;SDS011;63008;53.112;8.896;2023-04-09T01:36:23;85.80;;;40.57;;
5125;SDS011;63008;53.112;8.896;2023-04-09T01:38:25;73.23;;;36.43;;
5125;SDS011;63008;53.112;8.896;2023-04-09T01:40:27;76.00;;;39.17;;
5125;SDS011;63008;53.112;8.896;2023-04-09T01:42:28;72.17;;;38.27;;
5125;SDS011;63008;53.112;8.896;2023-04-09T01:44:29;81.00;;;39.30;;
5125;SDS011;63008;53.112;8.896;2023-04-09T01:46:31;86.13;;;38.40;;
5125;SDS011;63008;53.112;8.896;2023-04-09T01:48:33;74.77;;;38.33;;
5125;SDS011;63008;53.112;8.896;2023-04-09T01:50:35;75.57;;;37.77;;
5125;SDS011;63008;53.112;8.896;2023-04-09T01:52:39;83.03;;;36.60;;
5125;SDS011;63008;53.112;8.896;2023-04-09T01:54:41;69.50;;;37.17;;
5125;SDS011;63008;53.112;8.896;2023-04-09T01:56:43;79.93;;;37.77;;
5125;SDS011;63008;53.112;8.896;2023-04-09T01:58:45;72.77;;;35.37;;
5125;SDS011;63008;53.112;8.896;2023-04-09T02:00:46;70.27;;;36.10;;
5125;SDS011;63008;53.112;8.896;2023-04-09T02:02:52;71.30;;;36.17;;
5125;SDS011;63008;53.112;8.896;2023-04-09T02:04:59;67.93;;;37.13;;
5125;SDS011;63008;53.112;8.896;2023-04-09T02:07:09;72.10;;;35.57;;
5125;SDS011;63008;53.112;8.896;2023-04-09T02:09:15;72.73;;;36.90;;
5125;SDS011;63008;53.112;8.896;2023-04-09T02:11:19;69.87;;;36.73;;
5125;SDS011;63008;53.112;8.896;2023-04-09T02:13:23;72.80;;;36.50;;
5125;SDS011;63008;53.112;8.896;2023-04-09T02:15:26;69.47;;;35.90;;
5125;SDS011;63008;53.112;8.896;2023-04-09T02:17:30;73.67;;;35.60;;
5125;SDS011;63008;53.112;8.896;2023-04-09T02:19:44;69.77;;;36.77;;
5125;SDS011;63008;53.112;8.896;2023-04-09T02:21:46;77.30;;;38.10;;
5125;SDS011;63008;53.112;8.896;2023-04-09T02:23:47;67.63;;;35.20;;
5125;SDS011;63008;53.112;8.896;2023-04-09T02:25:48;64.77;;;34.97;;
5125;SDS011;63008;53.112;8.896;2023-04-09T02:27:49;70.80;;;38.23;;
5125;SDS011;63008;53.112;8.896;2023-04-09T02:29:50;69.57;;;35.63;;
5125;SDS011;63008;53.112;8.896;2023-04-09T02:31:51;81.43;;;37.80;;
5125;SDS011;63008;53.112;8.896;2023-04-09T02:33:55;72.33;;;38.67;;
5125;SDS011;63008;53.112;8.896;2023-04-09T02:35:56;69.37;;;36.37;;
5125;SDS011;63008;53.112;8.896;2023-04-09T02:37:57;62.57;;;35.80;;
5125;SDS011;63008;53.112;8.896;2023-04-09T02:39:58;69.73;;;36.73;;
5125;SDS011;63008;53.112;8.896;2023-04-09T02:41:59;74.97;;;37.30;;
5125;SDS011;63008;53.112;8.896;2023-04-09T02:44:00;69.80;;;36.50;;
5125;SDS011;63008;53.112;8.896;2023-04-09T02:46:01;65.63;;;35.47;;
5125;SDS011;63008;53.112;8.896;2023-04-09T02:48:03;62.67;;;33.90;;
5125;SDS011;63008;53.112;8.896;2023-04-09T02:50:04;65.53;;;34.30;;
5125;SDS011;63008;53.112;8.896;2023-04-09T02:52:06;66.27;;;34.80;;
5125;SDS011;63008;53.112;8.896;2023-04-09T02:54:07;66.47;;;31.40;;
5125;SDS011;63008;53.112;8.896;2023-04-09T02:56:08;62.87;;;31.47;;
5125;SDS011;63008;53.112;8.896;2023-04-09T02:58:08;59.60;;;32.30;;
5125;SDS011;63008;53.112;8.896;2023-04-09T03:00:10;62.60;;;32.60;;
5125;SDS011;63008;53.112;8.896;2023-04-09T03:02:11;56.97;;;30.97;;
5125;SDS011;63008;53.112;8.896;2023-04-09T03:04:12;50.13;;;28.20;;
5125;SDS011;63008;53.112;8.896;2023-04-09T03:06:13;55.97;;;30.10;;
5125;SDS011;63008;53.112;8.896;2023-04-09T03:08:14;54.70;;;29.40;;
5125;SDS011;63008;53.112;8.896;2023-04-09T03:10:15;51.43;;;27.07;;
5125;SDS011;63008;53.112;8.896;2023-04-09T03:12:16;48.57;;;27.67;;
5125;SDS011;63008;53.112;8.896;2023-04-09T03:14:17;46.50;;;26.60;;
5125;SDS011;63008;53.112;8.896;2023-04-09T03:16:18;54.63;;;27.83;;
5125;SDS011;63008;53.112;8.896;2023-04-09T03:18:19;46.27;;;25.70;;
5125;SDS011;63008;53.112;8.896;2023-04-09T03:20:20;47.73;;;27.10;;
5125;SDS011;63008;53.112;8.896;2023-04-09T03:22:21;47.80;;;25.67;;
5125;SDS011;63008;53.112;8.896;2023-04-09T03:24:22;40.53;;;25.23;;
5125;SDS011;63008;53.112;8.896;2023-04-09T03:26:23;44.93;;;25.10;;
5125;SDS011;63008;53.112;8.896;2023-04-09T03:28:24;46.47;;;26.27;;
5125;SDS011;63008;53.112;8.896;2023-04-09T03:30:25;51.03;;;27.60;;
5125;SDS011;63008;53.112;8.896;2023-04-09T03:32:26;45.50;;;25.80;;
5125;SDS011;63008;53.112;8.896;2023-04-09T03:34:27;50.17;;;26.70;;
5125;SDS011;63008;53.112;8.896;2023-04-09T03:36:28;47.87;;;26.47;;
5125;SDS011;63008;53.112;8.896;2023-04-09T03:38:29;48.50;;;27.70;;
5125;SDS011;63008;53.112;8.896;2023-04-09T03:40:30;50.13;;;26.67;;
5125;SDS011;63008;53.112;8.896;2023-04-09T03:42:32;47.20;;;28.03;;
5125;SDS011;63008;53.112;8.896;2023-04-09T03:44:34;48.60;;;26.57;;
5125;SDS011;63008;53.112;8.896;2023-04-09T03:46:35;47.73;;;24.63;;
5125;SDS011;63008;53.112;8.896;2023-04-09T03:48:36;47.93;;;24.10;;
5125;SDS011;63008;53.112;8.896;2023-04-09T03:50:38;46.37;;;26.50;;
5125;SDS011;63008;53.112;8.896;2023-04-09T03:52:39;44.87;;;24.83;;
5125;SDS011;63008;53.112;8.896;2023-04-09T03:54:40;41.93;;;24.60;;
5125;SDS011;63008;53.112;8.896;2023-04-09T03:56:42;42.70;;;24.80;;
5125;SDS011;63008;53.112;8.896;2023-04-09T03:58:43;44.07;;;24.13;;
5125;SDS011;63008;53.112;8.896;2023-04-09T04:00:44;46.90;;;25.00;;
5125;SDS011;63008;53.112;8.896;2023-04-09T04:02:46;49.80;;;25.90;;
5125;SDS011;63008;53.112;8.896;2023-04-09T04:04:47;45.27;;;26.27;;
5125;SDS011;63008;53.112;8.896;2023-04-09T04:06:48;49.20;;;26.87;;
5125;SDS011;63008;53.112;8.896;2023-04-09T04:08:49;43.07;;;24.97;;
5125;SDS011;63008;53.112;8.896;2023-04-09T04:10:50;42.93;;;25.27;;
5125;SDS011;63008;53.112;8.896;2023-04-09T04:12:51;44.27;;;24.53;;
5125;SDS011;63008;53.112;8.896;2023-04-09T04:14:52;44.97;;;23.53;;
5125;SDS011;63008;53.112;8.896;2023-04-09T04:16:53;37.30;;;23.53;;
5125;SDS011;63008;53.112;8.896;2023-04-09T04:18:53;43.93;;;25.20;;
5125;SDS011;63008;53.112;8.896;2023-04-09T04:20:54;48.40;;;24.90;;
5125;SDS011;63008;53.112;8.896;2023-04-09T04:22:55;44.40;;;23.57;;
5125;SDS011;63008;53.112;8.896;2023-04-09T04:24:56;37.63;;;22.87;;
5125;SDS011;63008;53.112;8.896;2023-04-09T04:26:57;44.87;;;24.10;;
5125;SDS011;63008;53.112;8.896;2023-04-09T04:28:58;40.80;;;24.37;;
5125;SDS011;63008;53.112;8.896;2023-04-09T04:30:59;37.03;;;23.27;;
5125;SDS011;63008;53.112;8.896;2023-04-09T04:33:00;37.33;;;22.60;;
5125;SDS011;63008;53.112;8.896;2023-04-09T04:35:01;40.17;;;23.73;;
5125;SDS011;63008;53.112;8.896;2023-04-09T04:37:02;42.40;;;23.80;;
5125;SDS011;63008;53.112;8.896;2023-04-09T04:39:06;40.23;;;22.90;;
5125;SDS011;63008;53.112;8.896;2023-04-09T04:41:07;38.60;;;22.77;;
5125;SDS011;63008;53.112;8.896;2023-04-09T04:43:10;45.03;;;23.60;;
5125;SDS011;63008;53.112;8.896;2023-04-09T04:45:11;43.90;;;24.83;;
5125;SDS011;63008;53.112;8.896;2023-04-09T04:47:12;40.50;;;23.50;;
5125;SDS011;63008;53.112;8.896;2023-04-09T04:49:13;42.40;;;24.27;;
5125;SDS011;63008;53.112;8.896;2023-04-09T04:51:14;41.10;;;22.67;;
5125;SDS011;63008;53.112;8.896;2023-04-09T04:53:15;47.97;;;23.60;;
5125;SDS011;63008;53.112;8.896;2023-04-09T04:55:16;50.10;;;25.20;;
5125;SDS011;63008;53.112;8.896;2023-04-09T04:57:17;47.43;;;26.03;;
5125;SDS011;63008;53.112;8.896;2023-04-09T04:59:18;54.23;;;26.93;;
5125;SDS011;63008;53.112;8.896;2023-04-09T05:01:19;51.80;;;27.10;;
5125;SDS011;63008;53.112;8.896;2023-04-09T05:03:20;52.00;;;26.17;;
5125;SDS011;63008;53.112;8.896;2023-04-09T05:05:21;58.27;;;27.10;;
5125;SDS011;63008;53.112;8.896;2023-04-09T05:07:22;51.90;;;25.33;;
5125;SDS011;63008;53.112;8.896;2023-04-09T05:09:23;49.77;;;26.43;;
5125;SDS011;63008;53.112;8.896;2023-04-09T05:11:24;52.30;;;28.20;;
5125;SDS011;63008;53.112;8.896;2023-04-09T05:13:25;49.03;;;26.97;;
5125;SDS011;63008;53.112;8.896;2023-04-09T05:15:26;46.63;;;25.50;;
5125;SDS011;63008;53.112;8.896;2023-04-09T05:17:27;48.27;;;26.57;;
5125;SDS011;63008;53.112;8.896;2023-04-09T05:19:28;50.13;;;26.00;;
5125;SDS011;63008;53.112;8.896;2023-04-09T05:21:29;49.00;;;27.40;;
5125;SDS011;63008;53.112;8.896;2023-04-09T05:23:31;48.27;;;26.73;;
5125;SDS011;63008;53.112;8.896;2023-04-09T05:25:33;46.87;;;26.37;;
5125;SDS011;63008;53.112;8.896;2023-04-09T05:27:34;48.50;;;26.57;;
5125;SDS011;63008;53.112;8.896;2023-04-09T05:29:35;49.23;;;26.20;;
5125;SDS011;63008;53.112;8.896;2023-04-09T05:31:35;52.10;;;26.70;;
5125;SDS011;63008;53.112;8.896;2023-04-09T05:33:37;50.23;;;27.50;;
5125;SDS011;63008;53.112;8.896;2023-04-09T05:35:38;47.97;;;27.30;;
5125;SDS011;63008;53.112;8.896;2023-04-09T05:37:39;54.37;;;27.10;;
5125;SDS011;63008;53.112;8.896;2023-04-09T05:39:40;52.40;;;27.57;;
5125;SDS011;63008;53.112;8.896;2023-04-09T05:41:41;56.13;;;28.10;;
5125;SDS011;63008;53.112;8.896;2023-04-09T05:43:44;51.33;;;28.10;;
5125;SDS011;63008;53.112;8.896;2023-04-09T05:45:45;46.67;;;27.17;;
5125;SDS011;63008;53.112;8.896;2023-04-09T05:47:46;56.60;;;29.27;;
5125;SDS011;63008;53.112;8.896;2023-04-09T05:49:47;50.33;;;26.67;;
5125;SDS011;63008;53.112;8.896;2023-04-09T05:51:48;52.30;;;28.00;;
5125;SDS011;63008;53.112;8.896;2023-04-09T05:53:52;52.23;;;27.97;;
5125;SDS011;63008;53.112;8.896;2023-04-09T05:55:53;49.03;;;29.80;;
5125;SDS011;63008;53.112;8.896;2023-04-09T05:57:54;47.70;;;26.50;;
5125;SDS011;63008;53.112;8.896;2023-04-09T05:59:55;50.97;;;27.97;;
5125;SDS011;63008;53.112;8.896;2023-04-09T06:01:56;46.30;;;26.40;;
5125;SDS011;63008;53.112;8.896;2023-04-09T06:03:57;55.67;;;29.30;;
5125;SDS011;63008;53.112;8.896;2023-04-09T06:05:58;47.33;;;25.13;;
5125;SDS011;63008;53.112;8.896;2023-04-09T06:07:59;53.70;;;27.17;;
5125;SDS011;63008;53.112;8.896;2023-04-09T06:10:00;50.30;;;27.43;;
5125;SDS011;63008;53.112;8.896;2023-04-09T06:12:02;44.07;;;26.20;;
5125;SDS011;63008;53.112;8.896;2023-04-09T06:14:04;41.70;;;24.97;;
5125;SDS011;63008;53.112;8.896;2023-04-09T06:16:05;50.93;;;26.07;;
5125;SDS011;63008;53.112;8.896;2023-04-09T06:18:08;44.27;;;25.90;;
5125;SDS011;63008;53.112;8.896;2023-04-09T06:20:09;44.87;;;26.33;;
5125;SDS011;63008;53.112;8.896;2023-04-09T06:22:10;49.63;;;26.50;;
5125;SDS011;63008;53.112;8.896;2023-04-09T06:24:11;47.77;;;26.20;;
5125;SDS011;63008;53.112;8.896;2023-04-09T06:26:12;37.63;;;21.97;;
5125;SDS011;63008;53.112;8.896;2023-04-09T06:28:13;50.57;;;24.77;;
5125;SDS011;63008;53.112;8.896;2023-04-09T06:30:14;41.37;;;23.73;;
5125;SDS011;63008;53.112;8.896;2023-04-09T06:32:15;37.57;;;23.10;;
5125;SDS011;63008;53.112;8.896;2023-04-09T06:34:16;41.07;;;22.83;;
5125;SDS011;63008;53.112;8.896;2023-04-09T06:36:17;38.90;;;20.80;;
5125;SDS011;63008;53.112;8.896;2023-04-09T06:38:18;37.10;;;21.47;;
5125;SDS011;63008;53.112;8.896;2023-04-09T06:40:19;34.00;;;21.10;;
5125;SDS011;63008;53.112;8.896;2023-04-09T06:42:22;36.37;;;20.07;;
5125;SDS011;63008;53.112;8.896;2023-04-09T06:44:23;34.87;;;20.63;;
5125;SDS011;63008;53.112;8.896;2023-04-09T06:46:24;36.93;;;20.20;;
5125;SDS011;63008;53.112;8.896;2023-04-09T06:48:25;30.40;;;19.90;;
5125;SDS011;63008;53.112;8.896;2023-04-09T06:50:26;34.53;;;21.63;;
5125;SDS011;63008;53.112;8.896;2023-04-09T06:52:27;33.50;;;19.67;;
5125;SDS011;63008;53.112;8.896;2023-04-09T06:54:28;38.57;;;21.03;;
5125;SDS011;63008;53.112;8.896;2023-04-09T06:56:29;34.73;;;19.33;;
5125;SDS011;63008;53.112;8.896;2023-04-09T06:58:30;30.63;;;18.77;;
5125;SDS011;63008;53.112;8.896;2023-04-09T07:00:31;31.97;;;17.63;;
5125;SDS011;63008;53.112;8.896;2023-04-09T07:02:32;25.77;;;17.10;;
5125;SDS011;63008;53.112;8.896;2023-04-09T07:04:33;32.27;;;20.27;;
5125;SDS011;63008;53.112;8.896;2023-04-09T07:06:34;28.80;;;18.13;;
5125;SDS011;63008;53.112;8.896;2023-04-09T07:08:35;30.57;;;19.40;;
5125;SDS011;63008;53.112;8.896;2023-04-09T07:10:36;27.07;;;17.30;;
5125;SDS011;63008;53.112;8.896;2023-04-09T07:12:37;26.73;;;18.20;;
5125;SDS011;63008;53.112;8.896;2023-04-09T07:14:38;32.00;;;19.93;;
5125;SDS011;63008;53.112;8.896;2023-04-09T07:16:39;25.70;;;16.60;;
5125;SDS011;63008;53.112;8.896;2023-04-09T07:18:40;27.37;;;17.77;;
5125;SDS011;63008;53.112;8.896;2023-04-09T07:20:41;26.10;;;17.40;;
5125;SDS011;63008;53.112;8.896;2023-04-09T07:22:42;25.73;;;16.37;;
5125;SDS011;63008;53.112;8.896;2023-04-09T07:24:43;29.00;;;17.10;;
5125;SDS011;63008;53.112;8.896;2023-04-09T07:26:44;24.83;;;16.40;;
5125;SDS011;63008;53.112;8.896;2023-04-09T07:28:45;23.57;;;15.83;;
5125;SDS011;63008;53.112;8.896;2023-04-09T07:30:46;25.33;;;15.33;;
5125;SDS011;63008;53.112;8.896;2023-04-09T07:32:47;28.87;;;17.47;;
5125;SDS011;63008;53.112;8.896;2023-04-09T07:34:50;24.00;;;17.60;;
5125;SDS011;63008;53.112;8.896;2023-04-09T07:36:52;25.03;;;17.23;;
5125;SDS011;63008;53.112;8.896;2023-04-09T07:38:54;29.50;;;16.63;;
5125;SDS011;63008;53.112;8.896;2023-04-09T07:40:55;26.60;;;17.27;;
5125;SDS011;63008;53.112;8.896;2023-04-09T07:42:56;23.83;;;17.30;;
5125;SDS011;63008;53.112;8.896;2023-04-09T07:44:57;24.37;;;16.87;;
5125;SDS011;63008;53.112;8.896;2023-04-09T07:46:58;25.20;;;17.00;;
5125;SDS011;63008;53.112;8.896;2023-04-09T07:48:59;28.83;;;17.80;;
5125;SDS011;63008;53.112;8.896;2023-04-09T07:51:00;29.67;;;17.50;;
5125;SDS011;63008;53.112;8.896;2023-04-09T07:53:01;31.13;;;18.97;;
5125;SDS011;63008;53.112;8.896;2023-04-09T07:55:02;26.60;;;17.90;;
5125;SDS011;63008;53.112;8.896;2023-04-09T07:57:04;26.80;;;18.73;;
5125;SDS011;63008;53.112;8.896;2023-04-09T07:59:05;30.77;;;18.83;;
5125;SDS011;63008;53.112;8.896;2023-04-09T08:01:06;27.77;;;18.50;;
5125;SDS011;63008;53.112;8.896;2023-04-09T08:03:07;24.97;;;16.40;;
5125;SDS011;63008;53.112;8.896;2023-04-09T08:05:08;27.20;;;17.50;;
5125;SDS011;63008;53.112;8.896;2023-04-09T08:07:09;28.67;;;18.37;;
5125;SDS011;63008;53.112;8.896;2023-04-09T08:09:11;29.17;;;17.33;;
5125;SDS011;63008;53.112;8.896;2023-04-09T08:11:11;29.90;;;18.13;;
5125;SDS011;63008;53.112;8.896;2023-04-09T08:13:12;26.37;;;18.00;;
5125;SDS011;63008;53.112;8.896;2023-04-09T08:15:13;27.73;;;17.80;;
5125;SDS011;63008;53.112;8.896;2023-04-09T08:17:14;22.57;;;16.60;;
5125;SDS011;63008;53.112;8.896;2023-04-09T08:19:16;25.83;;;15.67;;
5125;SDS011;63008;53.112;8.896;2023-04-09T08:21:17;26.00;;;17.13;;
5125;SDS011;63008;53.112;8.896;2023-04-09T08:23:18;26.30;;;18.27;;
5125;SDS011;63008;53.112;8.896;2023-04-09T08:25:20;22.57;;;16.30;;
5125;SDS011;63008;53.112;8.896;2023-04-09T08:27:21;23.97;;;16.70;;
5125;SDS011;63008;53.112;8.896;2023-04-09T08:29:22;23.70;;;17.03;;
5125;SDS011;63008;53.112;8.896;2023-04-09T08:31:23;24.93;;;16.57;;
5125;SDS011;63008;53.112;8.896;2023-04-09T08:33:25;27.80;;;18.37;;
5125;SDS011;63008;53.112;8.896;2023-04-09T08:35:26;25.70;;;17.07;;
5125;SDS011;63008;53.112;8.896;2023-04-09T08:37:28;26.53;;;17.60;;
5125;SDS011;63008;53.112;8.896;2023-04-09T08:39:29;21.70;;;15.97;;
5125;SDS011;63008;53.112;8.896;2023-04-09T08:41:30;22.83;;;16.87;;
5125;SDS011;63008;53.112;8.896;2023-04-09T08:43:31;25.43;;;17.23;;
5125;SDS011;63008;53.112;8.896;2023-04-09T08:45:34;28.10;;;18.90;;
5125;SDS011;63008;53.112;8.896;2023-04-09T08:47:35;25.43;;;16.63;;
5125;SDS011;63008;53.112;8.896;2023-04-09T08:49:38;20.73;;;15.53;;
5125;SDS011;63008;53.112;8.896;2023-04-09T08:51:44;21.63;;;15.57;;
5125;SDS011;63008;53.112;8.896;2023-04-09T08:53:46;22.47;;;16.83;;
5125;SDS011;63008;53.112;8.896;2023-04-09T08:55:50;23.37;;;15.63;;
5125;SDS011;63008;53.112;8.896;2023-04-09T08:57:51;22.30;;;15.87;;
5125;SDS011;63008;53.112;8.896;2023-04-09T08:59:51;20.30;;;15.37;;
5125;SDS011;63008;53.112;8.896;2023-04-09T09:02:10;23.90;;;15.13;;
5125;SDS011;63008;53.112;8.896;2023-04-09T09:04:11;22.23;;;15.23;;
5125;SDS011;63008;53.112;8.896;2023-04-09T09:06:19;22.03;;;14.93;;
5125;SDS011;63008;53.112;8.896;2023-04-09T09:08:22;23.30;;;14.20;;
5125;SDS011;63008;53.112;8.896;2023-04-09T09:10:34;22.80;;;16.10;;
5125;SDS011;63008;53.112;8.896;2023-04-09T09:12:40;20.37;;;15.50;;
5125;SDS011;63008;53.112;8.896;2023-04-09T09:14:42;19.90;;;15.23;;
5125;SDS011;63008;53.112;8.896;2023-04-09T09:16:44;18.20;;;14.67;;
5125;SDS011;63008;53.112;8.896;2023-04-09T09:19:03;19.30;;;14.50;;
5125;SDS011;63008;53.112;8.896;2023-04-09T09:21:14;22.30;;;14.90;;
5125;SDS011;63008;53.112;8.896;2023-04-09T09:23:16;21.37;;;15.20;;
5125;SDS011;63008;53.112;8.896;2023-04-09T09:25:39;20.87;;;14.53;;
5125;SDS011;63008;53.112;8.896;2023-04-09T09:27:41;19.60;;;15.43;;
5125;SDS011;63008;53.112;8.896;2023-04-09T09:29:43;19.80;;;14.13;;
5125;SDS011;63008;53.112;8.896;2023-04-09T09:31:49;20.70;;;15.60;;
5125;SDS011;63008;53.112;8.896;2023-04-09T09:33:51;16.43;;;13.47;;
5125;SDS011;63008;53.112;8.896;2023-04-09T09:35:52;19.13;;;15.17;;
5125;SDS011;63008;53.112;8.896;2023-04-09T09:38:00;16.37;;;14.50;;
5125;SDS011;63008;53.112;8.896;2023-04-09T09:40:03;18.30;;;15.43;;
5125;SDS011;63008;53.112;8.896;2023-04-09T09:42:07;20.97;;;15.00;;
5125;SDS011;63008;53.112;8.896;2023-04-09T09:44:09;19.37;;;15.40;;
5125;SDS011;63008;53.112;8.896;2023-04-09T09:46:11;19.27;;;15.10;;
5125;SDS011;63008;53.112;8.896;2023-04-09T09:48:12;19.70;;;15.20;;
5125;SDS011;63008;53.112;8.896;2023-04-09T09:50:14;22.33;;;15.50;;
5125;SDS011;63008;53.112;8.896;2023-04-09T09:52:15;18.23;;;14.80;;
5125;SDS011;63008;53.112;8.896;2023-04-09T09:54:20;20.13;;;15.27;;
5125;SDS011;63008;53.112;8.896;2023-04-09T09:56:28;18.93;;;15.27;;
5125;SDS011;63008;53.112;8.896;2023-04-09T09:58:44;17.73;;;15.03;;
5125;SDS011;63008;53.112;8.896;2023-04-09T10:00:52;18.80;;;15.60;;
5125;SDS011;63008;53.112;8.896;2023-04-09T10:02:56;23.63;;;16.00;;
5125;SDS011;63008;53.112;8.896;2023-04-09T10:04:59;19.93;;;16.00;;
5125;SDS011;63008;53.112;8.896;2023-04-09T10:07:01;19.40;;;15.20;;
5125;SDS011;63008;53.112;8.896;2023-04-09T10:09:05;18.87;;;15.33;;
5125;SDS011;63008;53.112;8.896;2023-04-09T10:11:07;19.80;;;15.40;;
5125;SDS011;63008;53.112;8.896;2023-04-09T10:13:08;21.10;;;15.63;;
5125;SDS011;63008;53.112;8.896;2023-04-09T10:15:20;19.37;;;15.47;;
5125;SDS011;63008;53.112;8.896;2023-04-09T10:17:22;19.93;;;14.70;;
5125;SDS011;63008;53.112;8.896;2023-04-09T10:19:23;16.20;;;12.77;;
5125;SDS011;63008;53.112;8.896;2023-04-09T10:21:32;18.60;;;14.57;;
5125;SDS011;63008;53.112;8.896;2023-04-09T10:23:39;21.03;;;16.10;;
5125;SDS011;63008;53.112;8.896;2023-04-09T10:25:43;18.30;;;14.07;;
5125;SDS011;63008;53.112;8.896;2023-04-09T10:27:45;17.07;;;14.33;;
5125;SDS011;63008;53.112;8.896;2023-04-09T10:29:48;16.23;;;14.07;;
5125;SDS011;63008;53.112;8.896;2023-04-09T10:32:09;17.80;;;14.37;;
5125;SDS011;63008;53.112;8.896;2023-04-09T10:34:13;18.60;;;15.57;;
5125;SDS011;63008;53.112;8.896;2023-04-09T10:36:14;19.90;;;15.43;;
5125;SDS011;63008;53.112;8.896;2023-04-09T10:38:37;19.27;;;15.40;;
5125;SDS011;63008;53.112;8.896;2023-04-09T10:40:47;19.27;;;14.67;;
5125;SDS011;63008;53.112;8.896;2023-04-09T10:42:50;17.73;;;14.33;;
5125;SDS011;63008;53.112;8.896;2023-04-09T10:45:03;18.23;;;14.67;;
5125;SDS011;63008;53.112;8.896;2023-04-09T10:47:14;17.97;;;14.80;;
5125;SDS011;63008;53.112;8.896;2023-04-09T10:49:35;17.80;;;15.20;;
5125;SDS011;63008;53.112;8.896;2023-04-09T10:51:37;17.17;;;14.73;;
5125;SDS011;63008;53.112;8.896;2023-04-09T10:53:39;18.10;;;14.70;;
5125;SDS011;63008;53.112;8.896;2023-04-09T10:55:40;20.13;;;15.50;;
5125;SDS011;63008;53.112;8.896;2023-04-09T10:57:41;17.73;;;15.40;;
5125;SDS011;63008;53.112;8.896;2023-04-09T10:59:50;17.73;;;14.93;;
5125;SDS011;63008;53.112;8.896;2023-04-09T11:01:55;17.10;;;14.37;;
5125;SDS011;63008;53.112;8.896;2023-04-09T11:04:12;18.03;;;14.37;;
5125;SDS011;63008;53.112;8.896;2023-04-09T11:06:20;16.47;;;14.10;;
5125;SDS011;63008;53.112;8.896;2023-04-09T11:08:21;19.70;;;15.40;;
5125;SDS011;63008;53.112;8.896;2023-04-09T11:10:22;18.83;;;15.37;;
5125;SDS011;63008;53.112;8.896;2023-04-09T11:12:23;19.80;;;15.13;;
5125;SDS011;63008;53.112;8.896;2023-04-09T11:14:24;18.47;;;15.40;;
5125;SDS011;63008;53.112;8.896;2023-04-09T11:16:28;17.13;;;13.63;;
5125;SDS011;63008;53.112;8.896;2023-04-09T11:18:30;16.17;;;14.40;;
5125;SDS011;63008;53.112;8.896;2023-04-09T11:20:33;19.70;;;14.90;;
5125;SDS011;63008;53.112;8.896;2023-04-09T11:22:34;21.00;;;13.83;;
5125;SDS011;63008;53.112;8.896;2023-04-09T11:24:41;17.07;;;14.00;;
5125;SDS011;63008;53.112;8.896;2023-04-09T11:26:43;18.23;;;13.40;;
5125;SDS011;63008;53.112;8.896;2023-04-09T11:28:45;18.13;;;14.50;;
5125;SDS011;63008;53.112;8.896;2023-04-09T11:30:46;17.77;;;15.07;;
5125;SDS011;63008;53.112;8.896;2023-04-09T11:32:49;17.87;;;14.93;;
5125;SDS011;63008;53.112;8.896;2023-04-09T11:34:51;14.50;;;12.40;;
5125;SDS011;63008;53.112;8.896;2023-04-09T11:36:52;15.83;;;13.70;;
5125;SDS011;63008;53.112;8.896;2023-04-09T11:38:56;14.23;;;12.77;;
5125;SDS011;63008;53.112;8.896;2023-04-09T11:40:58;14.07;;;12.63;;
5125;SDS011;63008;53.112;8.896;2023-04-09T11:43:01;15.10;;;12.77;;
5125;SDS011;63008;53.112;8.896;2023-04-09T11:45:02;13.90;;;12.50;;
5125;SDS011;63008;53.112;8.896;2023-04-09T11:47:04;15.90;;;14.30;;
5125;SDS011;63008;53.112;8.896;2023-04-09T11:49:05;15.23;;;13.40;;
5125;SDS011;63008;53.112;8.896;2023-04-09T11:51:07;15.63;;;13.77;;
5125;SDS011;63008;53.112;8.896;2023-04-09T11:53:15;18.20;;;13.10;;
5125;SDS011;63008;53.112;8.896;2023-04-09T11:55:24;13.97;;;12.47;;
5125;SDS011;63008;53.112;8.896;2023-04-09T11:57:35;15.20;;;12.60;;
5125;SDS011;63008;53.112;8.896;2023-04-09T11:59:40;16.00;;;13.20;;
5125;SDS011;63008;53.112;8.896;2023-04-09T12:01:41;12.57;;;11.27;;
5125;SDS011;63008;53.112;8.896;2023-04-09T12:03:52;14.60;;;11.90;;
5125;SDS011;63008;53.112;8.896;2023-04-09T12:05:54;14.53;;;11.83;;
5125;SDS011;63008;53.112;8.896;2023-04-09T12:08:01;15.00;;;12.60;;
5125;SDS011;63008;53.112;8.896;2023-04-09T12:10:05;13.17;;;11.77;;
5125;SDS011;63008;53.112;8.896;2023-04-09T12:12:07;14.90;;;11.73;;
5125;SDS011;63008;53.112;8.896;2023-04-09T12:14:15;12.93;;;11.50;;